sensor_id;sensor_type;location;lat;lon;timestamp;pressure;altitude;pressure_sealevel;temperature;humidity
62436;BME280;48480;50.252;18.848;2023-08-07T00:00:27;97431.95;;;15.37;91.27
62436;BME280;48480;50.252;18.848;2023-08-07T00:03:11;97428.27;;;15.40;91.45
62436;BME280;48480;50.252;18.848;2023-08-07T00:05:55;97425.28;;;15.42;91.28
62436;BME280;48480;50.252;18.848;2023-08-07T00:08:39;97428.33;;;15.45;91.28
62436;BME280;48480;50.252;18.848;2023-08-07T00:11:26;97420.45;;;15.45;91.21
62436;BME280;48480;50.252;18.848;2023-08-07T00:14:12;97428.67;;;15.50;90.96
62436;BME280;48480;50.252;18.848;2023-08-07T00:16:56;97425.63;;;15.47;91.00
62436;BME280;48480;50.252;18.848;2023-08-07T00:19:40;97422.36;;;15.45;91.09
62436;BME280;48480;50.252;18.848;2023-08-07T00:22:24;97418.40;;;15.42;91.16
62436;BME280;48480;50.252;18.848;2023-08-07T00:25:10;97419.96;;;15.43;91.25
62436;BME280;48480;50.252;18.848;2023-08-07T00:27:54;97416.83;;;15.47;91.20
62436;BME280;48480;50.252;18.848;2023-08-07T00:30:38;97420.02;;;15.50;90.76
62436;BME280;48480;50.252;18.848;2023-08-07T00:33:23;97420.34;;;15.51;90.95
62436;BME280;48480;50.252;18.848;2023-08-07T00:36:07;97420.58;;;15.52;90.78
62436;BME280;48480;50.252;18.848;2023-08-07T00:38:53;97417.23;;;15.48;90.72
62436;BME280;48480;50.252;18.848;2023-08-07T00:41:37;97416.36;;;15.45;91.25
62436;BME280;48480;50.252;18.848;2023-08-07T00:44:23;97420.02;;;15.42;91.13
62436;BME280;48480;50.252;18.848;2023-08-07T00:47:07;97419.08;;;15.40;91.20
62436;BME280;48480;50.252;18.848;2023-08-07T00:49:52;97413.08;;;15.42;91.34
62436;BME280;48480;50.252;18.848;2023-08-07T00:52:36;97411.40;;;15.44;91.46
62436;BME280;48480;50.252;18.848;2023-08-07T00:55:20;97409.27;;;15.47;91.60
62436;BME280;48480;50.252;18.848;2023-08-07T00:58:04;97409.28;;;15.49;91.46
62436;BME280;48480;50.252;18.848;2023-08-07T01:00:48;97410.35;;;15.47;91.65
62436;BME280;48480;50.252;18.848;2023-08-07T01:03:32;97410.52;;;15.49;91.79
62436;BME280;48480;50.252;18.848;2023-08-07T01:06:16;97411.76;;;15.49;91.87
62436;BME280;48480;50.252;18.848;2023-08-07T01:09:01;97408.14;;;15.50;91.57
62436;BME280;48480;50.252;18.848;2023-08-07T01:11:57;97408.85;;;15.53;91.66
62436;BME280;48480;50.252;18.848;2023-08-07T01:14:52;97407.86;;;15.54;91.52
62436;BME280;48480;50.252;18.848;2023-08-07T01:17:37;97415.87;;;15.61;91.35
62436;BME280;48480;50.252;18.848;2023-08-07T01:20:22;97403.39;;;15.55;91.27
62436;BME280;48480;50.252;18.848;2023-08-07T01:23:06;97415.59;;;15.65;91.27
62436;BME280;48480;50.252;18.848;2023-08-07T01:25:51;97414.04;;;15.64;90.98
62436;BME280;48480;50.252;18.848;2023-08-07T01:28:47;97408.15;;;15.62;90.87
62436;BME280;48480;50.252;18.848;2023-08-07T01:31:36;97414.30;;;15.58;90.79
62436;BME280;48480;50.252;18.848;2023-08-07T01:34:22;97416.46;;;15.58;90.60
62436;BME280;48480;50.252;18.848;2023-08-07T01:37:09;97420.10;;;15.58;90.57
62436;BME280;48480;50.252;18.848;2023-08-07T01:39:55;97417.14;;;15.57;90.79
62436;BME280;48480;50.252;18.848;2023-08-07T01:42:41;97415.09;;;15.59;90.74
62436;BME280;48480;50.252;18.848;2023-08-07T01:45:28;97417.78;;;15.59;90.76
62436;BME280;48480;50.252;18.848;2023-08-07T01:48:12;97419.07;;;15.56;90.71
62436;BME280;48480;50.252;18.848;2023-08-07T01:50:57;97418.95;;;15.52;90.91
62436;BME280;48480;50.252;18.848;2023-08-07T01:53:41;97418.05;;;15.54;90.87
62436;BME280;48480;50.252;18.848;2023-08-07T01:56:25;97419.94;;;15.57;90.77
62436;BME280;48480;50.252;18.848;2023-08-07T01:59:09;97422.89;;;15.60;90.79
62436;BME280;48480;50.252;18.848;2023-08-07T02:01:53;97420.80;;;15.58;90.89
62436;BME280;48480;50.252;18.848;2023-08-07T02:04:38;97419.67;;;15.54;91.03
62436;BME280;48480;50.252;18.848;2023-08-07T02:07:22;97415.84;;;15.48;90.97
62436;BME280;48480;50.252;18.848;2023-08-07T02:10:09;97414.02;;;15.43;90.93
62436;BME280;48480;50.252;18.848;2023-08-07T02:12:53;97410.29;;;15.42;91.24
62436;BME280;48480;50.252;18.848;2023-08-07T02:15:37;97411.13;;;15.40;91.22
62436;BME280;48480;50.252;18.848;2023-08-07T02:18:22;97411.35;;;15.39;91.47
62436;BME280;48480;50.252;18.848;2023-08-07T02:21:06;97415.48;;;15.35;91.72
62436;BME280;48480;50.252;18.848;2023-08-07T02:23:50;97416.59;;;15.30;91.83
62436;BME280;48480;50.252;18.848;2023-08-07T02:26:34;97415.41;;;15.26;92.13
62436;BME280;48480;50.252;18.848;2023-08-07T02:29:18;97409.21;;;15.25;92.14
62436;BME280;48480;50.252;18.848;2023-08-07T02:32:03;97409.58;;;15.24;92.04
62436;BME280;48480;50.252;18.848;2023-08-07T02:34:48;97408.34;;;15.21;92.29
62436;BME280;48480;50.252;18.848;2023-08-07T02:37:32;97413.35;;;15.22;92.58
62436;BME280;48480;50.252;18.848;2023-08-07T02:40:16;97415.61;;;15.24;92.54
62436;BME280;48480;50.252;18.848;2023-08-07T02:43:02;97419.92;;;15.24;92.65
62436;BME280;48480;50.252;18.848;2023-08-07T02:45:46;97420.22;;;15.21;92.61
62436;BME280;48480;50.252;18.848;2023-08-07T02:48:30;97423.27;;;15.18;92.79
62436;BME280;48480;50.252;18.848;2023-08-07T02:51:14;97422.41;;;15.17;92.76
62436;BME280;48480;50.252;18.848;2023-08-07T02:53:58;97418.51;;;15.19;92.89
62436;BME280;48480;50.252;18.848;2023-08-07T02:56:43;97421.85;;;15.23;93.00
62436;BME280;48480;50.252;18.848;2023-08-07T02:59:27;97422.41;;;15.25;92.94
62436;BME280;48480;50.252;18.848;2023-08-07T03:02:11;97423.80;;;15.25;92.85
62436;BME280;48480;50.252;18.848;2023-08-07T03:04:54;97425.48;;;15.24;92.91
62436;BME280;48480;50.252;18.848;2023-08-07T03:07:39;97426.14;;;15.20;93.03
62436;BME280;48480;50.252;18.848;2023-08-07T03:10:23;97429.45;;;15.18;92.97
62436;BME280;48480;50.252;18.848;2023-08-07T03:13:07;97430.39;;;15.19;93.08
62436;BME280;48480;50.252;18.848;2023-08-07T03:16:04;97429.02;;;15.22;93.12
62436;BME280;48480;50.252;18.848;2023-08-07T03:18:48;97433.73;;;15.28;93.33
62436;BME280;48480;50.252;18.848;2023-08-07T03:21:33;97435.96;;;15.29;93.37
62436;BME280;48480;50.252;18.848;2023-08-07T03:24:17;97436.73;;;15.28;93.17
62436;BME280;48480;50.252;18.848;2023-08-07T03:27:01;97434.16;;;15.26;93.23
62436;BME280;48480;50.252;18.848;2023-08-07T03:29:45;97436.30;;;15.24;93.27
62436;BME280;48480;50.252;18.848;2023-08-07T03:32:29;97438.95;;;15.26;93.38
62436;BME280;48480;50.252;18.848;2023-08-07T03:35:13;97438.97;;;15.27;93.37
62436;BME280;48480;50.252;18.848;2023-08-07T03:37:57;97439.34;;;15.27;93.71
62436;BME280;48480;50.252;18.848;2023-08-07T03:40:41;97441.73;;;15.27;93.68
62436;BME280;48480;50.252;18.848;2023-08-07T03:43:25;97442.10;;;15.25;93.91
62436;BME280;48480;50.252;18.848;2023-08-07T03:46:09;97444.93;;;15.24;94.07
62436;BME280;48480;50.252;18.848;2023-08-07T03:48:53;97445.35;;;15.19;94.03
62436;BME280;48480;50.252;18.848;2023-08-07T03:51:38;97449.52;;;15.18;94.31
62436;BME280;48480;50.252;18.848;2023-08-07T03:54:22;97452.28;;;15.17;94.17
62436;BME280;48480;50.252;18.848;2023-08-07T03:57:06;97452.70;;;15.12;94.46
62436;BME280;48480;50.252;18.848;2023-08-07T03:59:52;97453.95;;;15.07;94.73
62436;BME280;48480;50.252;18.848;2023-08-07T04:02:38;97458.48;;;14.98;95.02
62436;BME280;48480;50.252;18.848;2023-08-07T04:05:22;97458.38;;;14.89;95.48
62436;BME280;48480;50.252;18.848;2023-08-07T04:08:06;97463.61;;;14.89;95.84
62436;BME280;48480;50.252;18.848;2023-08-07T04:11:04;97460.69;;;14.90;95.87
62436;BME280;48480;50.252;18.848;2023-08-07T04:13:49;97464.41;;;14.91;95.95
62436;BME280;48480;50.252;18.848;2023-08-07T04:16:33;97466.89;;;14.91;96.05
62436;BME280;48480;50.252;18.848;2023-08-07T04:19:16;97470.50;;;14.90;96.02
62436;BME280;48480;50.252;18.848;2023-08-07T04:22:00;97471.76;;;14.86;96.30
62436;BME280;48480;50.252;18.848;2023-08-07T04:24:45;97472.98;;;14.85;96.66
62436;BME280;48480;50.252;18.848;2023-08-07T04:27:30;97464.54;;;14.82;96.63
62436;BME280;48480;50.252;18.848;2023-08-07T04:30:13;97473.98;;;14.90;96.38
62436;BME280;48480;50.252;18.848;2023-08-07T04:32:57;97477.94;;;14.92;96.37
62436;BME280;48480;50.252;18.848;2023-08-07T04:35:41;97468.80;;;14.84;96.25
62436;BME280;48480;50.252;18.848;2023-08-07T04:38:26;97478.52;;;14.89;96.32
62436;BME280;48480;50.252;18.848;2023-08-07T04:41:10;97476.30;;;14.86;96.38
62436;BME280;48480;50.252;18.848;2023-08-07T04:43:55;97477.30;;;14.85;96.39
62436;BME280;48480;50.252;18.848;2023-08-07T04:46:39;97474.00;;;14.86;96.24
62436;BME280;48480;50.252;18.848;2023-08-07T04:49:25;97473.95;;;14.89;96.14
62436;BME280;48480;50.252;18.848;2023-08-07T04:52:09;97472.08;;;14.92;96.15
62436;BME280;48480;50.252;18.848;2023-08-07T04:54:53;97474.27;;;14.96;95.88
62436;BME280;48480;50.252;18.848;2023-08-07T04:57:37;97472.70;;;15.01;95.96
62436;BME280;48480;50.252;18.848;2023-08-07T05:00:22;97473.98;;;15.04;95.55
62436;BME280;48480;50.252;18.848;2023-08-07T05:03:06;97477.81;;;15.02;95.50
62436;BME280;48480;50.252;18.848;2023-08-07T05:05:50;97482.13;;;15.02;95.51
62436;BME280;48480;50.252;18.848;2023-08-07T05:08:34;97482.95;;;15.06;95.55
62436;BME280;48480;50.252;18.848;2023-08-07T05:11:18;97484.15;;;15.10;95.31
62436;BME280;48480;50.252;18.848;2023-08-07T05:14:04;97490.33;;;15.16;95.25
62436;BME280;48480;50.252;18.848;2023-08-07T05:16:48;97492.70;;;15.23;95.17
62436;BME280;48480;50.252;18.848;2023-08-07T05:19:31;97486.29;;;15.21;95.15
62436;BME280;48480;50.252;18.848;2023-08-07T05:22:16;97491.44;;;15.26;95.16
62436;BME280;48480;50.252;18.848;2023-08-07T05:25:00;97491.61;;;15.28;94.98
62436;BME280;48480;50.252;18.848;2023-08-07T05:27:47;97489.80;;;15.32;94.67
62436;BME280;48480;50.252;18.848;2023-08-07T05:30:31;97490.17;;;15.38;94.42
62436;BME280;48480;50.252;18.848;2023-08-07T05:33:16;97493.37;;;15.41;93.98
62436;BME280;48480;50.252;18.848;2023-08-07T05:36:00;97490.45;;;15.43;94.06
62436;BME280;48480;50.252;18.848;2023-08-07T05:38:44;97491.97;;;15.41;93.69
62436;BME280;48480;50.252;18.848;2023-08-07T05:41:28;97495.33;;;15.36;94.00
62436;BME280;48480;50.252;18.848;2023-08-07T05:44:12;97501.40;;;15.34;93.90
62436;BME280;48480;50.252;18.848;2023-08-07T05:46:57;97505.02;;;15.33;93.92
62436;BME280;48480;50.252;18.848;2023-08-07T05:49:41;97502.45;;;15.38;94.18
62436;BME280;48480;50.252;18.848;2023-08-07T05:52:26;97501.56;;;15.43;93.92
62436;BME280;48480;50.252;18.848;2023-08-07T05:55:11;97501.34;;;15.44;93.62
62436;BME280;48480;50.252;18.848;2023-08-07T05:57:55;97498.95;;;15.44;93.35
62436;BME280;48480;50.252;18.848;2023-08-07T06:00:39;97503.43;;;15.44;93.27
62436;BME280;48480;50.252;18.848;2023-08-07T06:03:23;97504.50;;;15.43;93.11
62436;BME280;48480;50.252;18.848;2023-08-07T06:06:07;97506.70;;;15.46;93.22
62436;BME280;48480;50.252;18.848;2023-08-07T06:08:51;97515.08;;;15.50;92.35
62436;BME280;48480;50.252;18.848;2023-08-07T06:11:35;97514.59;;;15.48;92.16
62436;BME280;48480;50.252;18.848;2023-08-07T06:14:20;97516.52;;;15.49;92.33
62436;BME280;48480;50.252;18.848;2023-08-07T06:17:04;97516.61;;;15.49;92.22
62436;BME280;48480;50.252;18.848;2023-08-07T06:19:49;97521.98;;;15.45;92.26
62436;BME280;48480;50.252;18.848;2023-08-07T06:22:33;97519.13;;;15.38;92.26
62436;BME280;48480;50.252;18.848;2023-08-07T06:25:17;97519.04;;;15.37;92.10
62436;BME280;48480;50.252;18.848;2023-08-07T06:28:03;97525.77;;;15.38;92.00
62436;BME280;48480;50.252;18.848;2023-08-07T06:30:47;97527.27;;;15.36;91.78
62436;BME280;48480;50.252;18.848;2023-08-07T06:33:31;97531.24;;;15.37;91.89
62436;BME280;48480;50.252;18.848;2023-08-07T06:36:16;97531.04;;;15.34;91.62
62436;BME280;48480;50.252;18.848;2023-08-07T06:39:00;97527.50;;;15.28;91.50
62436;BME280;48480;50.252;18.848;2023-08-07T06:41:44;97528.68;;;15.23;92.00
62436;BME280;48480;50.252;18.848;2023-08-07T06:44:29;97527.86;;;15.26;92.05
62436;BME280;48480;50.252;18.848;2023-08-07T06:47:13;97529.38;;;15.30;92.20
62436;BME280;48480;50.252;18.848;2023-08-07T06:49:58;97528.71;;;15.33;91.54
62436;BME280;48480;50.252;18.848;2023-08-07T06:52:42;97533.31;;;15.30;91.49
62436;BME280;48480;50.252;18.848;2023-08-07T06:55:26;97534.92;;;15.29;92.28
62436;BME280;48480;50.252;18.848;2023-08-07T06:58:10;97535.48;;;15.30;92.33
62436;BME280;48480;50.252;18.848;2023-08-07T07:00:55;97537.95;;;15.30;92.48
62436;BME280;48480;50.252;18.848;2023-08-07T07:03:39;97539.20;;;15.32;92.40
62436;BME280;48480;50.252;18.848;2023-08-07T07:06:23;97539.23;;;15.36;92.83
62436;BME280;48480;50.252;18.848;2023-08-07T07:09:10;97541.74;;;15.38;92.73
62436;BME280;48480;50.252;18.848;2023-08-07T07:11:55;97546.58;;;15.36;92.47
62436;BME280;48480;50.252;18.848;2023-08-07T07:14:39;97546.90;;;15.31;92.31
62436;BME280;48480;50.252;18.848;2023-08-07T07:17:23;97545.83;;;15.24;92.19
62436;BME280;48480;50.252;18.848;2023-08-07T07:20:07;97557.42;;;15.26;92.73
62436;BME280;48480;50.252;18.848;2023-08-07T07:22:54;97559.41;;;15.25;92.41
62436;BME280;48480;50.252;18.848;2023-08-07T07:25:38;97562.59;;;15.19;92.56
62436;BME280;48480;50.252;18.848;2023-08-07T07:28:23;97563.00;;;15.14;92.80
62436;BME280;48480;50.252;18.848;2023-08-07T07:31:07;97567.23;;;15.13;92.96
62436;BME280;48480;50.252;18.848;2023-08-07T07:33:56;97570.02;;;15.14;93.17
62436;BME280;48480;50.252;18.848;2023-08-07T07:36:40;97569.74;;;15.17;93.54
62436;BME280;48480;50.252;18.848;2023-08-07T07:39:24;97575.80;;;15.19;93.52
62436;BME280;48480;50.252;18.848;2023-08-07T07:42:08;97579.02;;;15.18;93.71
62436;BME280;48480;50.252;18.848;2023-08-07T07:44:52;97579.53;;;15.23;94.25
62436;BME280;48480;50.252;18.848;2023-08-07T07:47:37;97581.82;;;15.32;94.53
62436;BME280;48480;50.252;18.848;2023-08-07T07:50:22;97584.17;;;15.42;93.82
62436;BME280;48480;50.252;18.848;2023-08-07T07:53:07;97583.27;;;15.46;93.83
62436;BME280;48480;50.252;18.848;2023-08-07T07:55:51;97584.38;;;15.47;94.15
62436;BME280;48480;50.252;18.848;2023-08-07T07:58:35;97590.63;;;15.45;93.88
62436;BME280;48480;50.252;18.848;2023-08-07T08:01:19;97590.39;;;15.45;93.84
62436;BME280;48480;50.252;18.848;2023-08-07T08:04:10;97595.81;;;15.48;93.42
62436;BME280;48480;50.252;18.848;2023-08-07T08:06:55;97599.14;;;15.47;93.75
62436;BME280;48480;50.252;18.848;2023-08-07T08:09:40;97600.03;;;15.52;94.11
62436;BME280;48480;50.252;18.848;2023-08-07T08:12:24;97593.75;;;15.55;93.85
62436;BME280;48480;50.252;18.848;2023-08-07T08:15:09;97594.27;;;15.55;94.01
62436;BME280;48480;50.252;18.848;2023-08-07T08:17:53;97598.92;;;15.63;94.11
62436;BME280;48480;50.252;18.848;2023-08-07T08:20:40;97606.24;;;15.69;93.80
62436;BME280;48480;50.252;18.848;2023-08-07T08:23:24;97609.54;;;15.72;93.29
62436;BME280;48480;50.252;18.848;2023-08-07T08:26:08;97610.95;;;15.69;93.28
62436;BME280;48480;50.252;18.848;2023-08-07T08:28:52;97610.92;;;15.66;93.24
62436;BME280;48480;50.252;18.848;2023-08-07T08:31:37;97612.90;;;15.63;93.34
62436;BME280;48480;50.252;18.848;2023-08-07T08:34:21;97618.02;;;15.64;93.48
62436;BME280;48480;50.252;18.848;2023-08-07T08:37:06;97618.33;;;15.65;93.10
62436;BME280;48480;50.252;18.848;2023-08-07T08:39:50;97620.30;;;15.69;92.97
62436;BME280;48480;50.252;18.848;2023-08-07T08:42:38;97621.17;;;15.70;92.84
62436;BME280;48480;50.252;18.848;2023-08-07T08:45:23;97620.30;;;15.74;93.33
62436;BME280;48480;50.252;18.848;2023-08-07T08:48:12;97626.24;;;15.80;93.33
62436;BME280;48480;50.252;18.848;2023-08-07T08:51:00;97632.16;;;15.91;93.15
62436;BME280;48480;50.252;18.848;2023-08-07T08:53:46;97631.88;;;16.01;92.50
62436;BME280;48480;50.252;18.848;2023-08-07T08:56:30;97635.57;;;16.07;92.41
62436;BME280;48480;50.252;18.848;2023-08-07T08:59:14;97632.46;;;16.12;92.28
62436;BME280;48480;50.252;18.848;2023-08-07T09:02:03;97638.65;;;16.14;92.36
62436;BME280;48480;50.252;18.848;2023-08-07T09:04:47;97632.42;;;16.17;91.78
62436;BME280;48480;50.252;18.848;2023-08-07T09:07:32;97633.17;;;16.23;92.31
62436;BME280;48480;50.252;18.848;2023-08-07T09:10:16;97635.23;;;16.28;91.22
62436;BME280;48480;50.252;18.848;2023-08-07T09:13:03;97637.27;;;16.30;91.18
62436;BME280;48480;50.252;18.848;2023-08-07T09:15:51;97639.82;;;16.32;90.86
62436;BME280;48480;50.252;18.848;2023-08-07T09:18:35;97643.44;;;16.29;91.02
62436;BME280;48480;50.252;18.848;2023-08-07T09:21:19;97640.98;;;16.31;91.92
62436;BME280;48480;50.252;18.848;2023-08-07T09:24:04;97648.86;;;16.31;91.00
62436;BME280;48480;50.252;18.848;2023-08-07T09:26:50;97650.73;;;16.32;91.30
62436;BME280;48480;50.252;18.848;2023-08-07T09:29:35;97652.50;;;16.31;91.28
62436;BME280;48480;50.252;18.848;2023-08-07T09:32:19;97658.91;;;16.23;91.39
62436;BME280;48480;50.252;18.848;2023-08-07T09:35:06;97662.15;;;16.15;91.61
62436;BME280;48480;50.252;18.848;2023-08-07T09:37:53;97662.84;;;16.15;91.87
62436;BME280;48480;50.252;18.848;2023-08-07T09:40:37;97662.32;;;16.15;92.72
62436;BME280;48480;50.252;18.848;2023-08-07T09:43:22;97665.48;;;16.22;92.87
62436;BME280;48480;50.252;18.848;2023-08-07T09:46:07;97668.88;;;16.39;93.82
62436;BME280;48480;50.252;18.848;2023-08-07T09:48:51;97664.77;;;16.55;93.58
62436;BME280;48480;50.252;18.848;2023-08-07T09:51:46;97665.39;;;16.64;93.17
62436;BME280;48480;50.252;18.848;2023-08-07T09:54:31;97671.10;;;16.72;92.39
62436;BME280;48480;50.252;18.848;2023-08-07T09:57:15;97673.35;;;16.72;91.21
62436;BME280;48480;50.252;18.848;2023-08-07T10:00:00;97677.30;;;16.75;90.28
62436;BME280;48480;50.252;18.848;2023-08-07T10:02:46;97678.80;;;16.77;90.42
62436;BME280;48480;50.252;18.848;2023-08-07T10:05:30;97680.05;;;16.79;91.05
62436;BME280;48480;50.252;18.848;2023-08-07T10:08:15;97685.02;;;16.87;91.34
62436;BME280;48480;50.252;18.848;2023-08-07T10:11:01;97687.69;;;16.91;90.54
62436;BME280;48480;50.252;18.848;2023-08-07T10:13:45;97695.36;;;16.95;90.17
62436;BME280;48480;50.252;18.848;2023-08-07T10:16:30;97718.10;;;16.91;89.00
62436;BME280;48480;50.252;18.848;2023-08-07T10:19:14;97726.60;;;16.75;86.00
62436;BME280;48480;50.252;18.848;2023-08-07T10:21:58;97732.27;;;16.37;84.28
62436;BME280;48480;50.252;18.848;2023-08-07T10:24:43;97728.12;;;16.04;85.21
62436;BME280;48480;50.252;18.848;2023-08-07T10:27:31;97734.41;;;15.80;85.68
62436;BME280;48480;50.252;18.848;2023-08-07T10:30:22;97733.66;;;15.54;85.82
62436;BME280;48480;50.252;18.848;2023-08-07T10:33:12;97738.56;;;15.36;86.73
62436;BME280;48480;50.252;18.848;2023-08-07T10:35:58;97741.48;;;15.24;87.44
62436;BME280;48480;50.252;18.848;2023-08-07T10:38:44;97745.64;;;15.23;88.10
62436;BME280;48480;50.252;18.848;2023-08-07T10:41:47;97745.55;;;15.27;88.75
62436;BME280;48480;50.252;18.848;2023-08-07T10:44:32;97749.16;;;15.26;88.62
62436;BME280;48480;50.252;18.848;2023-08-07T10:47:33;97749.80;;;15.23;89.29
62436;BME280;48480;50.252;18.848;2023-08-07T10:50:17;97743.36;;;15.20;89.62
62436;BME280;48480;50.252;18.848;2023-08-07T10:53:03;97748.78;;;15.21;89.66
62436;BME280;48480;50.252;18.848;2023-08-07T10:55:48;97746.74;;;15.29;89.73
62436;BME280;48480;50.252;18.848;2023-08-07T10:58:33;97747.89;;;15.39;89.55
62436;BME280;48480;50.252;18.848;2023-08-07T11:04:14;97747.86;;;15.48;89.42
62436;BME280;48480;50.252;18.848;2023-08-07T11:06:59;97750.34;;;15.43;89.21
62436;BME280;48480;50.252;18.848;2023-08-07T11:09:43;97749.20;;;15.45;89.27
62436;BME280;48480;50.252;18.848;2023-08-07T11:12:28;97745.31;;;15.48;89.37
62436;BME280;48480;50.252;18.848;2023-08-07T11:15:13;97742.44;;;15.52;89.76
62436;BME280;48480;50.252;18.848;2023-08-07T11:17:59;97743.95;;;15.61;89.37
62436;BME280;48480;50.252;18.848;2023-08-07T11:20:44;97747.48;;;15.65;88.63
62436;BME280;48480;50.252;18.848;2023-08-07T11:23:28;97748.16;;;15.59;89.00
62436;BME280;48480;50.252;18.848;2023-08-07T11:26:12;97752.33;;;15.47;89.09
62436;BME280;48480;50.252;18.848;2023-08-07T11:28:56;97751.75;;;15.40;89.34
62436;BME280;48480;50.252;18.848;2023-08-07T11:31:41;97753.89;;;15.43;89.55
62436;BME280;48480;50.252;18.848;2023-08-07T11:34:25;97760.57;;;15.51;89.81
62436;BME280;48480;50.252;18.848;2023-08-07T11:37:15;97761.64;;;15.55;90.35
62436;BME280;48480;50.252;18.848;2023-08-07T11:40:07;97761.88;;;15.62;90.38
62436;BME280;48480;50.252;18.848;2023-08-07T11:42:52;97758.34;;;15.64;90.49
62436;BME280;48480;50.252;18.848;2023-08-07T11:45:36;97766.08;;;15.70;90.50
62436;BME280;48480;50.252;18.848;2023-08-07T11:48:23;97769.86;;;15.70;90.22
62436;BME280;48480;50.252;18.848;2023-08-07T11:51:09;97772.41;;;15.74;90.02
62436;BME280;48480;50.252;18.848;2023-08-07T11:53:54;97772.77;;;15.77;89.41
62436;BME280;48480;50.252;18.848;2023-08-07T11:56:41;97777.66;;;15.80;89.62
62436;BME280;48480;50.252;18.848;2023-08-07T11:59:26;97777.50;;;15.85;89.89
62436;BME280;48480;50.252;18.848;2023-08-07T12:02:11;97785.13;;;15.89;90.12
62436;BME280;48480;50.252;18.848;2023-08-07T12:04:59;97785.92;;;15.90;89.96
62436;BME280;48480;50.252;18.848;2023-08-07T12:07:43;97787.26;;;15.91;89.99
62436;BME280;48480;50.252;18.848;2023-08-07T12:10:27;97785.38;;;16.02;89.79
62436;BME280;48480;50.252;18.848;2023-08-07T12:13:14;97781.23;;;16.11;89.26
62436;BME280;48480;50.252;18.848;2023-08-07T12:15:58;97783.80;;;16.19;88.67
62436;BME280;48480;50.252;18.848;2023-08-07T12:18:44;97792.11;;;16.22;88.64
62436;BME280;48480;50.252;18.848;2023-08-07T12:21:30;97792.23;;;16.26;88.92
62436;BME280;48480;50.252;18.848;2023-08-07T12:24:20;97798.83;;;16.28;89.14
62436;BME280;48480;50.252;18.848;2023-08-07T12:27:07;97803.48;;;16.29;88.88
62436;BME280;48480;50.252;18.848;2023-08-07T12:29:51;97804.52;;;16.32;88.88
62436;BME280;48480;50.252;18.848;2023-08-07T12:32:36;97809.52;;;16.38;88.32
62436;BME280;48480;50.252;18.848;2023-08-07T12:35:20;97812.16;;;16.39;87.65
62436;BME280;48480;50.252;18.848;2023-08-07T12:38:05;97817.43;;;16.39;87.59
62436;BME280;48480;50.252;18.848;2023-08-07T12:40:50;97818.27;;;16.37;87.36
62436;BME280;48480;50.252;18.848;2023-08-07T12:43:35;97820.06;;;16.39;87.48
62436;BME280;48480;50.252;18.848;2023-08-07T12:46:19;97827.87;;;16.45;87.20
62436;BME280;48480;50.252;18.848;2023-08-07T12:49:02;97828.70;;;16.51;87.20
62436;BME280;48480;50.252;18.848;2023-08-07T12:51:46;97828.66;;;16.54;87.44
62436;BME280;48480;50.252;18.848;2023-08-07T12:54:30;97833.33;;;16.56;87.71
62436;BME280;48480;50.252;18.848;2023-08-07T12:57:14;97829.10;;;16.59;87.69
62436;BME280;48480;50.252;18.848;2023-08-07T12:59:58;97830.95;;;16.64;87.43
62436;BME280;48480;50.252;18.848;2023-08-07T13:02:44;97831.48;;;16.71;86.96
62436;BME280;48480;50.252;18.848;2023-08-07T13:05:29;97833.46;;;16.82;87.20
62436;BME280;48480;50.252;18.848;2023-08-07T13:08:16;97838.80;;;16.88;86.64
62436;BME280;48480;50.252;18.848;2023-08-07T13:11:03;97840.08;;;16.92;85.84
62436;BME280;48480;50.252;18.848;2023-08-07T13:13:48;97845.98;;;16.95;85.57
62436;BME280;48480;50.252;18.848;2023-08-07T13:16:32;97841.81;;;16.97;85.60
62436;BME280;48480;50.252;18.848;2023-08-07T13:19:17;97848.80;;;17.07;85.42
62436;BME280;48480;50.252;18.848;2023-08-07T13:22:01;97849.08;;;17.11;85.29
62436;BME280;48480;50.252;18.848;2023-08-07T13:24:45;97846.30;;;17.20;84.99
62436;BME280;48480;50.252;18.848;2023-08-07T13:27:33;97848.45;;;17.36;84.68
62436;BME280;48480;50.252;18.848;2023-08-07T13:30:21;97845.52;;;17.49;84.22
62436;BME280;48480;50.252;18.848;2023-08-07T13:33:05;97836.45;;;17.59;84.00
62436;BME280;48480;50.252;18.848;2023-08-07T13:35:50;97841.08;;;17.78;83.98
62436;BME280;48480;50.252;18.848;2023-08-07T13:38:34;97843.54;;;17.97;82.08
62436;BME280;48480;50.252;18.848;2023-08-07T13:41:18;97846.78;;;18.10;81.95
62436;BME280;48480;50.252;18.848;2023-08-07T13:44:02;97847.66;;;18.32;81.42
62436;BME280;48480;50.252;18.848;2023-08-07T13:46:47;97819.79;;;18.23;79.80
62436;BME280;48480;50.252;18.848;2023-08-07T13:49:31;97854.11;;;18.50;78.92
62436;BME280;48480;50.252;18.848;2023-08-07T13:52:15;97857.15;;;18.58;78.86
62436;BME280;48480;50.252;18.848;2023-08-07T13:55:00;97859.83;;;18.70;77.85
62436;BME280;48480;50.252;18.848;2023-08-07T13:57:44;97856.91;;;18.78;77.73
62436;BME280;48480;50.252;18.848;2023-08-07T14:00:30;97862.30;;;18.83;76.69
62436;BME280;48480;50.252;18.848;2023-08-07T14:03:18;97863.82;;;18.78;75.69
62436;BME280;48480;50.252;18.848;2023-08-07T14:06:03;97866.98;;;18.72;76.35
62436;BME280;48480;50.252;18.848;2023-08-07T14:08:48;97869.14;;;18.71;76.17
62436;BME280;48480;50.252;18.848;2023-08-07T14:11:32;97867.20;;;18.70;75.99
62436;BME280;48480;50.252;18.848;2023-08-07T14:14:16;97872.27;;;18.75;76.15
62436;BME280;48480;50.252;18.848;2023-08-07T14:17:02;97876.34;;;18.65;75.09
62436;BME280;48480;50.252;18.848;2023-08-07T14:19:46;97877.48;;;18.54;75.26
62436;BME280;48480;50.252;18.848;2023-08-07T14:22:30;97879.36;;;18.39;76.00
62436;BME280;48480;50.252;18.848;2023-08-07T14:25:17;97880.61;;;18.28;75.47